EGPN/DND METAR and TAF weather

Enter ICAO airport designator
Station Type Date Time Source
EGPN METAR 2019/07/17 12:20 UTC NOAA

EGPN 171220Z 26009KT 9999 VCSH FEW017 SCT030 18/16 Q1008


Station Type Date Time Source
EGPN Decoded METAR 2019/07/17 12:20 UTC NOAA

Dundee / Riverside, United Kingdom (EGPN) 56-27N 003-01W
Jul 17, 2019 - 08:20 AM EDT / 2019.07.17 1220 UTC
Wind: from the W (260 degrees) at 10 MPH (9 KT):0
Visibility: greater than 7 mile(s):0
Sky conditions: partly cloudy
Weather: showers in the vicinity
Temperature: 64 F (18 C)
Dew Point: 60 F (16 C)
Relative Humidity: 88%
Pressure (altimeter): 29.77 in. Hg (1008 hPa)
ob: EGPN 171220Z 26009KT 9999 VCSH FEW017 SCT030 18/16 Q1008
cycle: 12

Station Type Date Time Source
EGPN TAF 2019/01/15 18:56 UTC NOAA

TAF EGPN 151750Z 1518/1621 CNL

Example: see airport list